createdAt,value
2018-11-01T00:01:26.574Z,10.53
2018-11-01T00:03:55.683Z,12.93
2018-11-01T00:06:24.614Z,10.13
2018-11-01T00:08:53.550Z,9.27
2018-11-01T00:11:22.531Z,10.23
2018-11-01T00:13:51.484Z,9.33
2018-11-01T00:16:20.484Z,9.60
2018-11-01T00:18:49.471Z,8.37
2018-11-01T00:21:18.410Z,11.63
2018-11-01T00:23:47.367Z,10.23
2018-11-01T00:26:16.291Z,8.10
2018-11-01T00:28:46.219Z,8.73
2018-11-01T00:31:15.190Z,9.33
2018-11-01T00:33:44.126Z,8.90
2018-11-01T00:36:13.115Z,9.20
2018-11-01T00:38:42.083Z,7.73
2018-11-01T00:41:11.010Z,6.97
2018-11-01T00:43:40.001Z,10.70
2018-11-01T00:46:08.967Z,7.50
2018-11-01T00:48:37.962Z,7.43
2018-11-01T00:51:07.101Z,10.07
2018-11-01T00:53:36.094Z,7.93
2018-11-01T00:56:05.047Z,7.30
2018-11-01T00:58:33.990Z,7.63
2018-11-01T01:01:02.938Z,6.90
2018-11-01T01:03:31.890Z,6.40
2018-11-01T01:06:00.802Z,7.30
2018-11-01T01:08:29.747Z,8.33
2018-11-01T01:10:58.707Z,6.00
2018-11-01T01:13:28.521Z,6.67
2018-11-01T01:15:58.538Z,7.47
2018-11-01T01:18:28.254Z,6.57
2018-11-01T01:20:57.495Z,6.57
2018-11-01T01:23:26.522Z,5.47
2018-11-01T01:25:55.502Z,7.53
2018-11-01T01:28:24.682Z,5.27
2018-11-01T01:30:53.798Z,7.00
2018-11-01T01:33:22.834Z,6.10
2018-11-01T01:35:51.885Z,6.63
2018-11-01T01:38:20.923Z,6.87
2018-11-01T01:40:49.906Z,9.03
2018-11-01T01:43:18.819Z,6.07
2018-11-01T01:45:47.740Z,6.00
2018-11-01T01:48:16.648Z,7.13
2018-11-01T01:50:45.607Z,5.30
2018-11-01T01:53:14.518Z,6.43
2018-11-01T01:55:43.429Z,6.77
2018-11-01T01:58:12.358Z,7.83
2018-11-01T02:00:41.258Z,6.10
2018-11-01T02:03:10.177Z,5.57
2018-11-01T02:05:39.114Z,9.90
2018-11-01T02:08:08.145Z,4.73
2018-11-01T02:10:37.090Z,5.37
2018-11-01T02:13:06.351Z,5.47
2018-11-01T02:15:35.378Z,9.60
2018-11-01T02:18:04.310Z,3.93
2018-11-01T02:20:33.250Z,3.67
2018-11-01T02:23:02.199Z,5.00
2018-11-01T02:25:31.119Z,5.30
2018-11-01T02:28:05.286Z,6.27
2018-11-01T02:30:34.227Z,5.60
2018-11-01T02:33:03.175Z,5.70
2018-11-01T02:35:32.530Z,6.37
2018-11-01T02:38:01.552Z,4.63
2018-11-01T02:40:31.392Z,3.97
2018-11-01T02:43:02.204Z,6.07
2018-11-01T02:45:31.099Z,4.77
2018-11-01T02:48:00.039Z,5.90
2018-11-01T02:50:28.996Z,6.00
2018-11-01T02:52:57.976Z,6.37
2018-11-01T02:55:26.897Z,4.70
2018-11-01T02:57:55.886Z,4.20
2018-11-01T03:00:24.832Z,5.60
2018-11-01T03:02:53.766Z,5.67
2018-11-01T03:05:22.703Z,5.53
2018-11-01T03:07:51.675Z,4.70
2018-11-01T03:10:20.594Z,6.33
2018-11-01T03:12:49.491Z,5.70
2018-11-01T03:15:18.394Z,7.23
2018-11-01T03:17:47.306Z,6.00
2018-11-01T03:20:16.255Z,4.73
2018-11-01T03:22:45.178Z,7.30
2018-11-01T03:25:14.102Z,4.43
2018-11-01T03:27:43.076Z,5.47
2018-11-01T03:30:12.078Z,5.10
2018-11-01T03:32:41.710Z,5.30
2018-11-01T03:35:11.803Z,5.57
2018-11-01T03:37:41.178Z,7.57
2018-11-01T03:40:10.950Z,7.70
2018-11-01T03:42:40.497Z,4.47
2018-11-01T03:45:10.712Z,6.17
2018-11-01T03:47:41.157Z,4.20
2018-11-01T03:50:10.955Z,6.53
2018-11-01T03:52:40.037Z,9.23
2018-11-01T03:55:10.380Z,4.80
2018-11-01T03:57:39.638Z,9.67
2018-11-01T04:00:10.873Z,4.67
2018-11-01T04:02:39.770Z,4.77
2018-11-01T04:05:08.746Z,5.50
2018-11-01T04:07:38.004Z,5.03
2018-11-01T04:10:08.027Z,6.90
2018-11-01T04:12:38.122Z,6.13
2018-11-01T04:15:11.214Z,5.57
2018-11-01T04:17:40.254Z,6.23
2018-11-01T04:20:10.546Z,7.53
2018-11-01T04:22:39.698Z,5.53
2018-11-01T04:25:08.619Z,6.03
2018-11-01T04:27:37.590Z,5.90
2018-11-01T04:30:07.288Z,5.27
2018-11-01T04:32:36.186Z,5.57
2018-11-01T04:35:05.363Z,5.17
2018-11-01T04:37:34.319Z,8.87
2018-11-01T04:40:03.294Z,7.93
2018-11-01T04:42:32.220Z,5.90
2018-11-01T04:45:01.296Z,5.67
2018-11-01T04:47:30.243Z,6.83
2018-11-01T04:49:59.146Z,6.30
2018-11-01T04:52:28.224Z,4.93
2018-11-01T04:54:58.373Z,8.70
2018-11-01T04:57:27.311Z,7.07
2018-11-01T04:59:56.228Z,6.90
2018-11-01T05:02:25.526Z,8.17
2018-11-01T05:04:54.491Z,7.67
2018-11-01T05:07:23.828Z,11.00
2018-11-01T05:09:52.735Z,8.27
2018-11-01T05:12:21.663Z,9.67
2018-11-01T05:14:50.604Z,7.73
2018-11-01T05:17:19.551Z,6.93
2018-11-01T05:19:48.473Z,6.77
2018-11-01T05:22:17.390Z,6.30
2018-11-01T05:24:46.408Z,9.50
2018-11-01T05:27:15.330Z,8.00
2018-11-01T05:29:44.334Z,6.03
2018-11-01T05:32:13.309Z,5.53
2018-11-01T05:34:42.289Z,7.03
2018-11-01T05:37:11.274Z,6.70
2018-11-01T05:39:40.303Z,7.23
2018-11-01T05:42:09.317Z,7.33
2018-11-01T05:44:38.282Z,7.93
2018-11-01T05:47:07.201Z,6.60
2018-11-01T05:49:37.064Z,9.77
2018-11-01T05:52:07.140Z,8.33
2018-11-01T05:54:36.278Z,8.20
2018-11-01T05:57:05.331Z,6.33
2018-11-01T05:59:34.286Z,5.63
2018-11-01T06:02:08.483Z,5.20
2018-11-01T06:04:37.425Z,7.97
2018-11-01T06:07:06.434Z,4.97
2018-11-01T06:09:35.549Z,4.40
2018-11-01T06:12:04.577Z,4.67
2018-11-01T06:14:33.617Z,6.40
2018-11-01T06:17:02.731Z,5.73
2018-11-01T06:19:31.803Z,5.15
2018-11-01T06:22:04.791Z,8.00
2018-11-01T06:24:33.855Z,6.27
2018-11-01T06:27:05.525Z,6.23
2018-11-01T06:29:44.041Z,6.20
2018-11-01T06:32:12.943Z,6.63
2018-11-01T06:34:46.978Z,7.17
2018-11-01T06:37:16.286Z,6.73
2018-11-01T06:39:45.222Z,6.67
2018-11-01T06:42:14.177Z,8.20
2018-11-01T06:44:43.263Z,7.37
2018-11-01T06:47:12.115Z,6.27
2018-11-01T06:49:41.042Z,4.77
2018-11-01T06:52:09.998Z,7.77
2018-11-01T06:54:38.906Z,4.97
2018-11-01T06:57:08.109Z,7.13
2018-11-01T06:59:37.083Z,5.33
2018-11-01T07:02:06.239Z,5.13
2018-11-01T07:04:35.182Z,5.97
2018-11-01T07:07:04.161Z,4.67
2018-11-01T07:09:33.088Z,7.47
2018-11-01T07:12:02.055Z,6.50
2018-11-01T07:14:30.970Z,5.33
2018-11-01T07:17:00.555Z,5.57
2018-11-01T07:19:30.921Z,3.73
2018-11-01T07:22:00.208Z,6.20
2018-11-01T07:24:29.160Z,6.60
2018-11-01T07:26:58.086Z,8.53
2018-11-01T07:29:27.029Z,5.70
2018-11-01T07:31:55.948Z,6.23
2018-11-01T07:34:25.170Z,4.53
2018-11-01T07:36:57.027Z,4.30
2018-11-01T07:39:25.974Z,4.63
2018-11-01T07:41:55.098Z,7.03
2018-11-01T07:44:24.166Z,5.60
2018-11-01T07:46:53.098Z,5.10
2018-11-01T07:49:22.068Z,6.93
2018-11-01T07:51:51.041Z,5.30
2018-11-01T07:54:19.987Z,9.93
2018-11-01T07:56:49.016Z,5.67
2018-11-01T07:59:17.963Z,3.97
2018-11-01T08:01:46.927Z,6.87
2018-11-01T08:04:15.870Z,4.07
2018-11-01T08:06:44.840Z,5.23
2018-11-01T08:09:13.783Z,8.63
2018-11-01T08:11:42.854Z,3.87
2018-11-01T08:14:12.123Z,3.97
2018-11-01T08:16:41.855Z,3.33
2018-11-01T08:19:10.884Z,5.80
2018-11-01T08:21:39.818Z,4.50
2018-11-01T08:24:08.808Z,3.93
2018-11-01T08:26:37.763Z,5.63
2018-11-01T08:29:06.706Z,6.10
2018-11-01T08:31:35.682Z,5.67
2018-11-01T08:34:04.787Z,3.97
2018-11-01T08:36:33.731Z,6.30
2018-11-01T08:39:02.723Z,6.23
2018-11-01T08:41:31.747Z,6.23
2018-11-01T08:44:00.706Z,7.37
2018-11-01T08:46:29.679Z,5.30
2018-11-01T08:48:58.586Z,3.50
2018-11-01T08:51:27.482Z,6.27
2018-11-01T08:53:56.399Z,3.33
2018-11-01T08:56:25.367Z,5.30
2018-11-01T08:58:54.387Z,4.50
2018-11-01T09:01:23.886Z,6.30
2018-11-01T09:03:53.046Z,4.13
2018-11-01T09:06:26.251Z,3.73
2018-11-01T09:08:57.676Z,7.83
2018-11-01T09:11:26.634Z,3.20
2018-11-01T09:13:55.572Z,4.03
2018-11-01T09:16:25.640Z,4.53
2018-11-01T09:18:55.759Z,3.33
2018-11-01T09:21:24.717Z,4.40
2018-11-01T09:23:58.901Z,5.27
2018-11-01T09:26:28.788Z,5.93
2018-11-01T09:28:57.840Z,4.10
2018-11-01T09:31:28.980Z,4.13
2018-11-01T09:33:58.897Z,6.10
2018-11-01T09:36:27.867Z,5.40
2018-11-01T09:38:56.781Z,6.40
2018-11-01T09:41:25.736Z,4.30
2018-11-01T09:43:54.662Z,6.77
2018-11-01T09:46:23.745Z,7.27
2018-11-01T09:48:52.559Z,5.00
2018-11-01T09:51:21.547Z,3.97
2018-11-01T09:53:50.570Z,5.80
2018-11-01T09:56:19.516Z,9.67
2018-11-01T09:58:48.693Z,7.40
2018-11-01T10:01:17.631Z,4.17
2018-11-01T10:03:46.794Z,4.13
2018-11-01T10:06:15.781Z,4.63
2018-11-01T10:08:44.753Z,5.90
2018-11-01T10:11:13.847Z,4.47
2018-11-01T10:13:44.010Z,4.10
2018-11-01T10:16:13.397Z,5.17
2018-11-01T10:18:42.883Z,4.97
2018-11-01T10:21:11.975Z,5.50
2018-11-01T10:23:40.918Z,3.63
2018-11-01T10:26:09.918Z,8.47
2018-11-01T10:28:38.987Z,5.37
2018-11-01T10:31:08.023Z,3.20
2018-11-01T10:33:40.984Z,6.77
2018-11-01T10:36:10.235Z,5.30
2018-11-01T10:38:39.238Z,4.80
2018-11-01T10:41:08.280Z,5.20
2018-11-01T10:43:37.515Z,5.17
2018-11-01T10:46:06.542Z,3.23
2018-11-01T10:48:35.652Z,7.60
2018-11-01T10:52:33.790Z,3.90
2018-11-01T10:55:03.604Z,5.60
2018-11-01T10:57:32.875Z,5.43
2018-11-01T11:00:09.808Z,5.37
2018-11-01T11:02:40.902Z,4.97
2018-11-01T11:05:09.865Z,4.00
2018-11-01T11:07:39.059Z,4.30
2018-11-01T11:10:09.093Z,6.20
2018-11-01T11:12:38.094Z,4.07
2018-11-01T11:15:08.383Z,5.50
2018-11-01T11:17:37.464Z,4.73
2018-11-01T11:20:07.164Z,6.67
2018-11-01T11:22:36.568Z,4.07
2018-11-01T11:25:06.905Z,7.90
2018-11-01T11:27:35.847Z,4.83
2018-11-01T11:30:05.491Z,3.57
2018-11-01T11:32:34.426Z,3.80
2018-11-01T11:35:04.202Z,5.67
2018-11-01T11:37:34.257Z,4.07
2018-11-01T11:40:03.799Z,5.30
2018-11-01T11:42:32.747Z,4.27
2018-11-01T11:45:01.701Z,6.33
2018-11-01T11:47:30.841Z,3.27
2018-11-01T11:49:59.763Z,5.37
2018-11-01T11:52:28.763Z,4.60
2018-11-01T11:54:57.731Z,7.97
2018-11-01T11:57:26.652Z,5.47
2018-11-01T11:59:55.583Z,3.33
2018-11-01T12:02:24.591Z,3.37
2018-11-01T12:04:53.478Z,4.90
2018-11-01T12:07:22.606Z,6.47
2018-11-01T12:09:51.542Z,2.60
2018-11-01T12:12:20.461Z,3.97
2018-11-01T12:14:49.467Z,3.33
2018-11-01T12:17:18.398Z,4.60
2018-11-01T12:19:47.376Z,6.97
2018-11-01T12:22:18.955Z,3.53
2018-11-01T12:24:52.513Z,5.43
2018-11-01T12:27:21.601Z,6.53
2018-11-01T12:29:50.627Z,4.10
2018-11-01T12:32:19.575Z,4.43
2018-11-01T12:34:48.524Z,3.33
2018-11-01T12:37:17.502Z,6.20
2018-11-01T12:39:46.467Z,2.57
2018-11-01T12:42:15.394Z,5.00
2018-11-01T12:44:44.326Z,4.07
2018-11-01T12:47:13.298Z,5.80
2018-11-01T12:49:42.290Z,5.83
2018-11-01T12:52:11.309Z,3.47
2018-11-01T12:54:40.258Z,6.10
2018-11-01T12:57:09.213Z,4.60
2018-11-01T12:59:38.144Z,3.30
2018-11-01T13:02:07.053Z,4.67
2018-11-01T13:04:36.022Z,6.77
2018-11-01T13:07:05.198Z,7.03
2018-11-01T13:09:34.115Z,4.97
2018-11-01T13:12:03.357Z,10.20
2018-11-01T13:14:32.305Z,4.37
2018-11-01T13:17:01.219Z,20.00
2018-11-01T13:19:30.521Z,7.43
2018-11-01T13:21:59.580Z,4.53
2018-11-01T13:24:28.526Z,5.77
2018-11-01T13:26:57.447Z,4.23
2018-11-01T13:29:29.217Z,4.83
2018-11-01T13:31:58.935Z,5.00
2018-11-01T13:34:28.549Z,6.53
2018-11-01T13:36:59.570Z,4.43
2018-11-01T13:39:29.600Z,6.57
2018-11-01T13:41:58.463Z,3.80
2018-11-01T13:44:27.363Z,4.10
2018-11-01T13:46:56.338Z,3.67
2018-11-01T13:49:25.472Z,7.37
2018-11-01T13:51:55.930Z,3.70
2018-11-01T13:54:35.041Z,8.07
2018-11-01T13:57:06.707Z,5.13
2018-11-01T13:59:38.981Z,5.97
2018-11-01T14:02:07.857Z,4.20
2018-11-01T14:04:41.854Z,5.03
2018-11-01T14:07:14.900Z,9.13
2018-11-01T14:11:13.812Z,7.60
2018-11-01T14:13:44.359Z,6.60
2018-11-01T14:16:17.833Z,3.67
2018-11-01T14:18:46.997Z,5.03
2018-11-01T14:21:15.930Z,6.13
2018-11-01T14:23:47.270Z,4.33
2018-11-01T14:29:02.699Z,5.53
2018-11-01T14:31:32.279Z,8.07
2018-11-01T14:34:01.245Z,5.37
2018-11-01T14:36:30.214Z,5.80
2018-11-01T14:38:59.138Z,3.97
2018-11-01T14:41:28.140Z,5.73
2018-11-01T14:43:57.053Z,6.90
2018-11-01T14:46:26.022Z,3.47
2018-11-01T14:48:54.987Z,4.20
2018-11-01T14:51:23.951Z,5.63
2018-11-01T14:53:53.684Z,2.93
2018-11-01T14:56:23.104Z,5.07
2018-11-01T14:58:51.497Z,6.27
2018-11-01T15:01:27.378Z,2.93
2018-11-01T15:03:56.933Z,6.13
2018-11-01T15:06:26.881Z,5.77
2018-11-01T15:08:55.880Z,10.70
2018-11-01T15:11:26.209Z,3.33
2018-11-01T15:13:57.606Z,4.43
2018-11-01T15:16:37.910Z,4.23
2018-11-01T15:19:15.533Z,8.20
2018-11-01T15:21:51.908Z,5.73
2018-11-01T15:24:34.759Z,7.70
2018-11-01T15:27:16.023Z,5.77
2018-11-01T15:29:47.127Z,4.43
2018-11-01T15:32:24.228Z,5.10
2018-11-01T15:35:00.899Z,4.90
2018-11-01T15:37:40.047Z,4.60
2018-11-01T15:40:16.266Z,5.77
2018-11-01T15:42:50.483Z,5.37
2018-11-01T15:45:29.970Z,5.03
2018-11-01T15:48:03.523Z,5.87
2018-11-01T15:50:33.132Z,7.13
2018-11-01T15:53:10.948Z,6.53
2018-11-01T15:55:54.015Z,6.63
2018-11-01T15:58:27.867Z,6.70
2018-11-01T16:00:56.882Z,7.70
2018-11-01T16:03:25.888Z,7.30
2018-11-01T16:06:08.019Z,7.07
2018-11-01T16:08:52.663Z,5.33
2018-11-01T16:11:27.370Z,5.80
2018-11-01T16:14:11.510Z,4.47
2018-11-01T16:16:48.159Z,5.77
2018-11-01T16:19:32.274Z,8.87
2018-11-01T16:22:11.586Z,6.20
2018-11-01T16:25:08.594Z,6.20
2018-11-01T16:27:37.769Z,9.43
2018-11-01T16:30:07.667Z,9.95
2018-11-01T16:32:36.747Z,5.93
2018-11-01T16:35:06.279Z,7.00
2018-11-01T16:37:35.248Z,9.53
2018-11-01T16:40:05.039Z,9.77
2018-11-01T16:47:22.602Z,5.67
2018-11-01T16:49:55.857Z,9.60
2018-11-01T16:52:24.783Z,8.23
2018-11-01T16:54:53.751Z,5.80
2018-11-01T16:57:22.701Z,6.20
2018-11-01T16:59:51.661Z,6.93
2018-11-01T17:02:20.665Z,8.60
2018-11-01T17:04:49.687Z,5.87
2018-11-01T17:07:18.719Z,5.53
2018-11-01T17:09:47.685Z,7.20
2018-11-01T17:12:16.690Z,5.87
2018-11-01T17:14:45.672Z,6.50
2018-11-01T17:17:14.643Z,9.17
2018-11-01T17:19:43.588Z,6.80
2018-11-01T17:22:12.656Z,7.17
2018-11-01T17:24:41.591Z,7.80
2018-11-01T17:27:10.526Z,8.07
2018-11-01T17:29:39.482Z,8.07
2018-11-01T17:32:08.475Z,6.80
2018-11-01T17:34:37.530Z,7.13
2018-11-01T17:37:06.525Z,6.90
2018-11-01T17:39:35.572Z,8.77
2018-11-01T17:42:04.619Z,7.80
2018-11-01T17:44:33.682Z,8.77
2018-11-01T17:47:02.735Z,8.13
2018-11-01T17:49:31.716Z,11.30
2018-11-01T17:53:03.467Z,10.27
2018-11-01T17:55:32.427Z,12.43
2018-11-01T17:58:01.349Z,6.90
2018-11-01T18:00:31.680Z,8.47
2018-11-01T18:03:02.195Z,8.87
2018-11-01T18:05:31.187Z,8.77
2018-11-01T18:08:00.310Z,8.30
2018-11-01T18:10:29.262Z,10.10
2018-11-01T18:12:58.193Z,9.60
2018-11-01T18:15:27.446Z,7.00
2018-11-01T18:17:56.538Z,6.60
2018-11-01T18:20:25.547Z,7.27
2018-11-01T18:22:55.163Z,6.27
2018-11-01T18:25:24.296Z,6.67
2018-11-01T18:27:53.281Z,6.47
2018-11-01T18:30:23.086Z,6.57
2018-11-01T18:33:02.744Z,9.30
2018-11-01T18:35:32.760Z,6.50
2018-11-01T18:38:02.126Z,10.63
2018-11-01T18:40:31.313Z,9.67
2018-11-01T18:43:01.272Z,7.60
2018-11-01T18:45:30.314Z,8.23
2018-11-01T18:47:59.308Z,9.03
2018-11-01T18:50:28.690Z,7.58
2018-11-01T18:52:58.528Z,8.00
2018-11-01T18:55:27.614Z,5.90
2018-11-01T18:57:56.653Z,7.23
2018-11-01T19:00:25.843Z,7.63
2018-11-01T19:03:08.423Z,8.60
2018-11-01T19:05:37.410Z,9.70
2018-11-01T19:08:06.536Z,9.60
2018-11-01T19:10:35.721Z,8.97
2018-11-01T19:13:05.619Z,9.07
2018-11-01T19:15:34.559Z,11.60
2018-11-01T19:18:03.605Z,10.60
2018-11-01T19:20:32.553Z,13.47
2018-11-01T19:23:01.511Z,10.93
2018-11-01T19:25:30.515Z,14.23
2018-11-01T19:27:59.522Z,11.43
2018-11-01T19:30:28.438Z,12.47
2018-11-01T19:32:57.483Z,11.83
2018-11-01T19:35:26.447Z,13.97
2018-11-01T19:37:55.399Z,11.17
2018-11-01T19:40:24.399Z,11.33
2018-11-01T19:42:53.390Z,13.63
2018-11-01T19:45:22.355Z,11.50
2018-11-01T19:47:51.445Z,12.47
2018-11-01T19:50:20.388Z,10.57
2018-11-01T19:52:49.507Z,12.13
2018-11-01T19:55:18.506Z,13.60
2018-11-01T19:57:47.575Z,10.57
2018-11-01T20:00:17.672Z,10.97
2018-11-01T20:02:47.603Z,14.93
2018-11-01T20:05:16.443Z,14.07
2018-11-01T20:07:45.535Z,12.27
2018-11-01T20:10:15.296Z,14.80
2018-11-01T20:12:44.570Z,12.17
2018-11-01T20:15:13.543Z,12.23
2018-11-01T20:17:43.410Z,17.13
2018-11-01T20:20:13.271Z,13.60
2018-11-01T20:22:43.267Z,12.63
2018-11-01T20:25:12.219Z,13.40
2018-11-01T20:27:41.288Z,14.53
2018-11-01T20:30:12.716Z,13.10
2018-11-01T20:32:42.931Z,12.17
2018-11-01T20:35:13.444Z,15.63
2018-11-01T20:37:42.754Z,12.27
2018-11-01T20:40:11.735Z,14.97
2018-11-01T20:42:41.319Z,16.73
2018-11-01T20:45:11.386Z,16.90
2018-11-01T20:47:40.694Z,17.60
2018-11-01T20:50:11.258Z,14.43
2018-11-01T20:52:41.821Z,13.63
2018-11-01T20:55:10.953Z,17.47
2018-11-01T20:57:40.015Z,16.43
2018-11-01T21:00:10.897Z,16.33
2018-11-01T21:02:40.235Z,18.83
2018-11-01T21:05:09.360Z,15.03
2018-11-01T21:07:38.274Z,13.47
2018-11-01T21:10:09.116Z,15.20
2018-11-01T21:12:38.856Z,14.97
2018-11-01T21:15:09.450Z,12.77
2018-11-01T21:17:38.567Z,17.10
2018-11-01T21:20:07.714Z,17.30
2018-11-01T21:22:36.657Z,16.27
2018-11-01T21:25:06.055Z,16.83
2018-11-01T21:27:35.078Z,16.40
2018-11-01T21:30:04.204Z,19.83
2018-11-01T21:32:42.604Z,17.50
2018-11-01T21:35:11.787Z,18.53
2018-11-01T21:37:40.725Z,19.63
2018-11-01T21:40:10.603Z,24.00
2018-11-01T21:42:39.553Z,19.37
2018-11-01T21:45:10.986Z,20.67
2018-11-01T21:47:39.965Z,19.83
2018-11-01T21:50:09.347Z,19.43
2018-11-01T21:52:44.420Z,18.37
2018-11-01T21:55:18.553Z,19.47
2018-11-01T21:57:55.515Z,21.50
2018-11-01T22:00:24.487Z,20.63
2018-11-01T22:02:53.484Z,21.30
2018-11-01T22:05:22.420Z,22.90
2018-11-01T22:07:51.354Z,23.50
2018-11-01T22:10:20.291Z,22.77
2018-11-01T22:12:49.296Z,28.27
2018-11-01T22:15:21.864Z,20.10
2018-11-01T22:18:05.394Z,24.40
2018-11-01T22:20:44.898Z,23.37
2018-11-01T22:23:19.075Z,21.40
2018-11-01T22:25:51.080Z,23.43
2018-11-01T22:28:23.330Z,23.47
2018-11-01T22:31:00.743Z,23.10
2018-11-01T22:33:36.816Z,25.53
2018-11-01T22:36:25.889Z,24.00
2018-11-01T22:38:54.911Z,23.03
2018-11-01T22:41:23.912Z,23.80
2018-11-01T22:43:52.888Z,26.27
2018-11-01T22:46:22.059Z,24.00
2018-11-01T22:48:51.051Z,25.17
2018-11-01T22:51:20.295Z,24.80
2018-11-01T22:53:49.291Z,23.80
2018-11-01T22:56:18.207Z,24.77
2018-11-01T22:58:47.946Z,25.23
2018-11-01T23:01:16.943Z,22.63
2018-11-01T23:03:45.960Z,23.70
2018-11-01T23:06:14.907Z,24.47
2018-11-01T23:08:43.868Z,22.20
2018-11-01T23:11:12.791Z,23.37
2018-11-01T23:13:41.986Z,21.57
2018-11-01T23:16:10.955Z,24.43
2018-11-01T23:18:39.970Z,22.80
2018-11-01T23:21:08.983Z,21.93
2018-11-01T23:23:37.970Z,19.20
2018-11-01T23:26:07.079Z,21.37
2018-11-01T23:28:36.005Z,20.77
2018-11-01T23:31:05.379Z,18.17
2018-11-01T23:33:34.440Z,18.27
2018-11-01T23:36:03.644Z,19.30
2018-11-01T23:38:37.841Z,20.60
2018-11-01T23:41:12.270Z,17.73
2018-11-01T23:43:46.455Z,15.97
2018-11-01T23:46:20.714Z,18.13
2018-11-01T23:48:56.032Z,15.70
2018-11-01T23:51:24.979Z,12.77
2018-11-01T23:53:54.478Z,17.30
2018-11-01T23:56:23.409Z,14.33
2018-11-01T23:58:52.331Z,11.83
